createdAt,value
2022-07-26T00:01:16.052Z,43.3991932545481
2022-07-26T00:04:16.556Z,43.6381198376365
2022-07-26T00:07:16.658Z,44.16855292325872
2022-07-26T00:11:16.505Z,45.08970230357541
2022-07-26T00:14:16.588Z,45.22946812252251
2022-07-26T00:17:16.285Z,45.92813457270344
2022-07-26T00:21:16.242Z,46.07912412727606
2022-07-26T00:24:16.138Z,45.932248321824325
2022-07-26T00:27:16.153Z,46.09428205697646
2022-07-26T00:31:15.793Z,46.315819043122346
2022-07-26T00:34:16.011Z,46.63498346512433
2022-07-26T00:37:19.954Z,46.721335009801365
2022-07-26T00:41:16.094Z,46.85580550020819
2022-07-26T00:44:17.182Z,47.133256337279676
2022-07-26T00:47:16.839Z,46.31176519057293
2022-07-26T00:51:16.311Z,46.85382130439294
2022-07-26T00:54:16.621Z,47.689913477282765
2022-07-26T00:57:16.264Z,47.199106689840605
2022-07-26T01:01:15.745Z,47.2808659277475
2022-07-26T01:04:16.258Z,47.66872725876086
2022-07-26T01:07:16.668Z,47.836100853424675
2022-07-26T01:11:16.245Z,48.091958955644145
2022-07-26T01:14:20.018Z,48.4803171137588
2022-07-26T01:17:16.701Z,48.81444672161687
2022-07-26T01:21:16.936Z,48.63416650111204
2022-07-26T01:24:17.644Z,48.69034483223764
2022-07-26T01:27:17.072Z,48.891269941535434
2022-07-26T01:31:18.203Z,48.73064224749931
2022-07-26T01:34:18.175Z,49.37273477950695
2022-07-26T01:37:17.445Z,49.36718981046775
2022-07-26T01:41:16.554Z,49.53527712976875
2022-07-26T01:44:16.789Z,49.91013831386196
2022-07-26T01:47:17.136Z,49.93963110697111
2022-07-26T01:51:15.982Z,50.02142389411971
2022-07-26T01:54:16.172Z,50.154045089932914
2022-07-26T01:57:16.113Z,50.14280298298834
2022-07-26T02:01:15.884Z,49.521706388136586
2022-07-26T02:04:58.719Z,49.52062107086212
2022-07-26T02:07:16.174Z,49.309736610482496
2022-07-26T02:11:16.465Z,48.36371907833514
2022-07-26T02:14:25.540Z,48.26044930592335
2022-07-26T02:17:17.049Z,48.378108827285445
2022-07-26T02:21:15.869Z,48.726895769322056
2022-07-26T02:24:16.339Z,48.9867809528226
2022-07-26T02:27:16.666Z,49.92456101901186
2022-07-26T02:31:15.951Z,49.75607425377152
2022-07-26T02:34:16.959Z,50.131671644241116
2022-07-26T02:37:16.364Z,50.54185215390894
2022-07-26T02:41:16.272Z,50.70507053377629
2022-07-26T02:44:16.331Z,51.1070294154862
2022-07-26T02:47:16.426Z,51.10011304783583
2022-07-26T02:51:16.485Z,50.70465370802078
2022-07-26T02:54:16.561Z,50.55874185578527
2022-07-26T02:57:16.573Z,50.57522147489942
2022-07-26T03:01:16.254Z,50.66831475795736
2022-07-26T03:04:16.711Z,50.881518905200025
2022-07-26T03:07:16.563Z,50.893285608160355
2022-07-26T03:11:16.079Z,50.58660522557251
2022-07-26T03:14:16.855Z,50.70117627404333
2022-07-26T03:17:16.508Z,50.868917761441445
2022-07-26T03:21:16.232Z,50.88737142247161
2022-07-26T03:24:16.712Z,51.17511627252993
2022-07-26T03:27:16.764Z,51.307253863793754
2022-07-26T03:31:16.505Z,51.29559002963141
2022-07-26T03:34:17.015Z,51.27337053915428
2022-07-26T03:37:17.542Z,51.92519789511348
2022-07-26T03:41:15.982Z,51.71673385301274
2022-07-26T03:44:16.343Z,52.210763106560094
2022-07-26T03:47:16.454Z,52.48196556267512
2022-07-26T03:51:16.312Z,52.465744808831246
2022-07-26T03:54:16.563Z,52.7721065797457
2022-07-26T03:57:16.609Z,53.13301951903821
2022-07-26T04:01:17.651Z,52.87932234348105
2022-07-26T04:04:18.513Z,52.937058155143646
2022-07-26T04:07:17.196Z,52.938322125704715
2022-07-26T04:11:16.155Z,52.908411378834785
2022-07-26T04:14:16.515Z,52.76211344143984
2022-07-26T04:17:16.600Z,52.60559792601023
2022-07-26T04:21:16.732Z,52.18461267499246
2022-07-26T04:24:16.712Z,52.148877192037524
2022-07-26T04:27:16.816Z,52.53477584976257
2022-07-26T04:31:18.482Z,52.63965922854892
2022-07-26T04:34:18.654Z,52.667758866538996
2022-07-26T04:37:18.793Z,52.99505052137985
2022-07-26T04:41:16.573Z,52.59194403250964
2022-07-26T04:44:16.819Z,53.122773629697846
2022-07-26T04:47:16.825Z,53.29061952258475
2022-07-26T04:51:15.774Z,53.60443164279946
2022-07-26T04:54:22.844Z,54.336042883468586
2022-07-26T04:57:16.193Z,54.62471568242801
2022-07-26T05:01:15.984Z,54.77614072284034
2022-07-26T05:04:16.280Z,55.43146963105564
2022-07-26T05:07:16.235Z,55.29406938008813
2022-07-26T05:11:16.171Z,54.66905126663939
2022-07-26T05:14:16.450Z,54.35667903545016
2022-07-26T05:17:17.953Z,54.555835122174415
2022-07-26T05:21:17.500Z,54.9253375678391
2022-07-26T05:24:16.886Z,55.17866549097857
2022-07-26T05:27:16.985Z,55.08191902893888
2022-07-26T05:31:17.045Z,54.54654445540481
2022-07-26T05:34:16.651Z,54.37259097323678
2022-07-26T05:37:16.914Z,54.31622936810911
2022-07-26T05:41:16.042Z,54.642103357969184
2022-07-26T05:44:16.068Z,55.33079522123524
2022-07-26T05:47:16.419Z,55.591161297796766
2022-07-26T05:51:17.333Z,55.63537599847164
2022-07-26T05:54:16.486Z,56.243162983259374
2022-07-26T05:57:16.601Z,56.83967722515676
2022-07-26T06:01:18.760Z,56.24242198520207
2022-07-26T06:04:16.818Z,55.755670368906266
2022-07-26T06:07:16.861Z,56.27892884322275
2022-07-26T06:11:19.890Z,55.98171344086963
2022-07-26T06:14:19.117Z,56.20729217806815
2022-07-26T06:17:18.213Z,56.341340600632755
2022-07-26T06:21:16.535Z,56.47993364887235
2022-07-26T06:24:16.828Z,57.122429661144814
2022-07-26T06:27:16.775Z,56.354939407233395
2022-07-26T06:31:17.076Z,55.02177281507807
2022-07-26T06:34:17.289Z,54.3805713696378
2022-07-26T06:37:19.978Z,54.11692935371137
2022-07-26T06:41:15.557Z,54.688744893812036
2022-07-26T06:44:16.196Z,55.583532289326634
2022-07-26T06:47:16.081Z,58.29356327694683
2022-07-26T06:51:16.326Z,60.8701585783574
2022-07-26T06:54:16.486Z,59.6937777978952
2022-07-26T06:57:16.451Z,58.69742751193077
2022-07-26T07:01:58.120Z,56.0910743764464
2022-07-26T07:04:17.237Z,55.9509485606344
2022-07-26T07:07:16.720Z,56.03429867557965
2022-07-26T07:11:16.061Z,56.0405759031432
2022-07-26T07:14:16.450Z,56.74524500225806
2022-07-26T07:17:20.324Z,56.689541692858626
2022-07-26T07:21:16.707Z,54.86941999266503
2022-07-26T07:24:17.135Z,54.599217916546266
2022-07-26T07:27:16.803Z,53.34507234848921
2022-07-26T07:31:15.800Z,54.187247184491945
2022-07-26T07:34:19.440Z,53.41072393995724
2022-07-26T07:37:16.921Z,52.638048209549666
2022-07-26T07:41:15.802Z,52.47206083940336
2022-07-26T07:44:16.596Z,52.42253928333242
2022-07-26T07:47:16.379Z,51.9470536336298
2022-07-26T07:51:16.365Z,51.81707185690251
2022-07-26T07:54:40.712Z,51.823888720004746
2022-07-26T07:57:16.816Z,51.498606628581946
2022-07-26T08:01:15.735Z,51.11636543398753
2022-07-26T08:04:16.233Z,52.058092740978395
2022-07-26T08:07:15.988Z,52.17759658534509
2022-07-26T08:11:16.296Z,51.77743270969514
2022-07-26T08:14:16.613Z,51.61576121299684
2022-07-26T08:17:16.524Z,51.202633911994766
2022-07-26T08:21:16.924Z,51.12610437190351
2022-07-26T08:24:43.952Z,51.36144876444686
2022-07-26T08:27:17.260Z,51.884103479008125
2022-07-26T08:31:16.690Z,51.5706061063001
2022-07-26T08:34:18.103Z,51.08574673529326
2022-07-26T08:37:17.852Z,50.848409320956065
2022-07-26T08:41:17.188Z,49.74429675135149
2022-07-26T08:44:16.839Z,50.156064509260545
2022-07-26T08:47:35.150Z,49.888830780191924
2022-07-26T08:51:19.287Z,49.234935333187856
2022-07-26T08:54:16.712Z,48.56801579812441
2022-07-26T08:57:17.145Z,47.853641092057835
2022-07-26T09:01:17.339Z,48.37211495140727
2022-07-26T09:04:30.474Z,48.12702541759744
2022-07-26T09:07:18.369Z,47.50614377604953
2022-07-26T09:11:28.662Z,47.227472429095435
2022-07-26T09:14:16.245Z,47.163318914152626
2022-07-26T09:17:18.785Z,46.28242740213784
2022-07-26T09:21:35.167Z,45.04844144086349
2022-07-26T09:24:30.103Z,45.44352567378369
2022-07-26T09:27:17.575Z,45.0736844642494
2022-07-26T09:31:22.476Z,44.72730393913521
2022-07-26T09:34:51.973Z,44.945766218104815
2022-07-26T09:37:17.109Z,45.01736475070086
2022-07-26T09:41:18.749Z,44.75947033251714
2022-07-26T09:44:22.230Z,44.5541181509043
2022-07-26T09:47:16.972Z,43.84100717393787
2022-07-26T09:51:34.508Z,42.18297434191718
2022-07-26T09:54:19.027Z,42.324731101327494
2022-07-26T09:57:18.405Z,42.53747356208858
2022-07-26T10:01:16.476Z,42.88038522625818
2022-07-26T10:04:42.226Z,42.366237363257355
2022-07-26T10:07:17.101Z,42.324866214878796
2022-07-26T10:11:17.789Z,42.165109579130174
2022-07-26T10:14:48.757Z,42.49651585336655
2022-07-26T10:17:40.920Z,42.5676259205091
2022-07-26T10:21:21.733Z,41.59012806478518
2022-07-26T10:24:24.882Z,40.90194805667258
2022-07-26T10:27:36.235Z,40.56320844244
2022-07-26T10:31:32.794Z,41.08524257368035
2022-07-26T10:34:30.336Z,40.96601770987596
2022-07-26T10:37:24.450Z,41.381065188372745
2022-07-26T10:41:31.444Z,39.99092361275836
2022-07-26T10:44:21.712Z,37.02483544003137
2022-07-26T10:47:17.076Z,37.52254449620279
2022-07-26T10:51:25.000Z,37.687508527500654
2022-07-26T10:54:17.546Z,38.4576401642365
2022-07-26T10:57:16.205Z,38.442762171954335
2022-07-26T11:01:16.625Z,38.067916033201634
2022-07-26T11:04:40.233Z,38.143547310312464
2022-07-26T11:07:16.932Z,36.21638737886563
2022-07-26T11:11:27.616Z,36.31547154396804
2022-07-26T11:21:17.223Z,35.835964675992905
2022-07-26T11:31:17.640Z,34.88438122692564
2022-07-26T11:41:19.188Z,35.38577243173264
2022-07-26T11:51:18.921Z,32.617664920199424
2022-07-26T12:01:18.293Z,30.014448717085575
2022-07-26T12:11:18.562Z,28.953942710078785
2022-07-26T12:21:16.463Z,28.60964161564086
2022-07-26T12:31:29.949Z,30.258903282301265
2022-07-26T12:41:31.694Z,29.54013591012145
2022-07-26T12:51:16.747Z,29.550215411059618
2022-07-26T13:01:16.317Z,26.706390691105646
2022-07-26T13:11:16.559Z,26.20785523274719
2022-07-26T13:21:15.896Z,26.752036266139438
2022-07-26T13:31:21.558Z,26.85549450424358
2022-07-26T13:41:15.991Z,26.14195347717203
2022-07-26T13:51:16.323Z,26.087375862326937
2022-07-26T14:01:15.843Z,25.898501197393763
2022-07-26T14:11:16.419Z,25.450667285881973
2022-07-26T14:21:16.440Z,26.893509761425225
2022-07-26T14:31:16.646Z,25.96511566442841
2022-07-26T14:41:16.850Z,26.32583609971528
2022-07-26T14:51:16.140Z,26.96624818304945
2022-07-26T15:01:16.296Z,28.979426061886436
2022-07-26T15:11:16.284Z,30.719381823445275
2022-07-26T15:21:16.519Z,31.9180796613825
2022-07-26T15:31:15.682Z,32.32846821820005
2022-07-26T15:41:15.949Z,32.72032530100235
2022-07-26T15:51:16.196Z,33.30551206636253
2022-07-26T16:01:16.199Z,33.583301335158346
2022-07-26T16:11:16.284Z,33.96591892470392
2022-07-26T16:21:16.903Z,34.28369015401437
2022-07-26T16:31:16.574Z,35.49225972243888
2022-07-26T16:41:16.230Z,35.610496519192104
2022-07-26T16:51:17.062Z,35.93192501736174
2022-07-26T17:01:16.659Z,36.19176074215891
2022-07-26T17:11:16.051Z,36.71092976009695
2022-07-26T17:21:15.939Z,37.012677583719736
2022-07-26T17:31:15.796Z,37.3713746179593
2022-07-26T17:41:18.356Z,37.841203990916235
2022-07-26T17:51:19.636Z,38.060427181211566
2022-07-26T18:01:17.221Z,38.78575056613909
2022-07-26T18:11:16.005Z,39.46654835651323
2022-07-26T18:21:16.759Z,40.24603847637062
2022-07-26T18:31:16.295Z,42.02808348978683
2022-07-26T18:34:16.475Z,42.14666009446648
2022-07-26T18:37:16.665Z,42.69232402492629
2022-07-26T18:41:16.941Z,43.237399080446174
2022-07-26T18:44:17.020Z,43.32035270264565
2022-07-26T18:47:17.075Z,43.80574521876718
2022-07-26T18:51:16.643Z,44.21381053242185
2022-07-26T18:54:17.636Z,44.72779432346371
2022-07-26T18:57:16.752Z,44.86365190759606
2022-07-26T19:01:17.176Z,45.25951461857605
2022-07-26T19:04:18.076Z,45.61962539090423
2022-07-26T19:07:17.533Z,45.713824635523416
2022-07-26T19:11:16.232Z,45.931944308596925
2022-07-26T19:14:16.721Z,46.326321116691936
2022-07-26T19:17:16.462Z,46.279069119466975
2022-07-26T19:21:16.358Z,47.16783429356726
2022-07-26T19:24:16.615Z,47.16686889259553
2022-07-26T19:27:16.662Z,46.919639932696235
2022-07-26T19:31:16.396Z,46.94846006583007
2022-07-26T19:34:16.496Z,47.04169118639762
2022-07-26T19:37:21.223Z,47.41188471663251
2022-07-26T19:41:16.500Z,47.593738581692634
2022-07-26T19:44:16.538Z,48.05127091153355
2022-07-26T19:47:16.277Z,48.13940679113186
2022-07-26T19:51:16.575Z,48.69762863964296
2022-07-26T19:54:17.064Z,48.7681846414033
2022-07-26T19:57:17.168Z,49.10328235062843
2022-07-26T20:01:22.006Z,49.67306237775393
2022-07-26T20:04:20.658Z,49.925143767593624
2022-07-26T20:07:20.082Z,49.942375951124745
2022-07-26T20:11:17.234Z,50.37079250703047
2022-07-26T20:14:17.745Z,50.95816028087492
2022-07-26T20:17:16.840Z,51.37941903613981
2022-07-26T20:21:16.418Z,51.9660026921485
2022-07-26T20:24:16.452Z,52.22418703575417
2022-07-26T20:27:16.398Z,52.19537966616828
2022-07-26T20:31:16.461Z,52.53501395200121
2022-07-26T20:34:16.609Z,52.68084279174394
2022-07-26T20:37:16.298Z,53.25925647886557
2022-07-26T20:41:16.249Z,53.87979375927858
2022-07-26T20:44:16.632Z,54.35126938292351
2022-07-26T20:47:16.321Z,54.81205478078831
2022-07-26T20:51:16.756Z,54.97039987007375
2022-07-26T20:54:17.729Z,55.11199336533118
2022-07-26T20:57:17.147Z,54.829541460896706
2022-07-26T21:01:16.284Z,54.67224585909375
2022-07-26T21:04:16.418Z,54.92210510832229
2022-07-26T21:07:16.476Z,55.387157589486776
2022-07-26T21:11:39.388Z,55.95882476458717
2022-07-26T21:14:20.343Z,56.172949436919296
2022-07-26T21:17:20.250Z,55.65456318511134
2022-07-26T21:21:16.554Z,55.526408149025144
2022-07-26T21:24:16.924Z,55.94919063345717
2022-07-26T21:27:16.976Z,56.45579151731881
2022-07-26T21:31:15.881Z,55.94591900255593
2022-07-26T21:34:16.683Z,56.24275989694812
2022-07-26T21:37:16.660Z,56.84705313247394
2022-07-26T21:41:16.705Z,57.23422073060525
2022-07-26T21:44:17.010Z,58.13730312652431
2022-07-26T21:47:16.873Z,57.843336244620474
2022-07-26T21:51:16.150Z,57.986159441804475
2022-07-26T21:54:16.142Z,58.658416519030304
2022-07-26T21:57:16.397Z,58.72026997224272
2022-07-26T22:01:16.559Z,59.41092308736328
2022-07-26T22:04:17.972Z,58.802238581430736
2022-07-26T22:07:16.772Z,58.076462981750595
2022-07-26T22:11:15.831Z,58.12089609535989
2022-07-26T22:14:17.454Z,58.81980255074051
2022-07-26T22:17:16.163Z,58.77132653420651
2022-07-26T22:21:16.528Z,59.093312849894794
2022-07-26T22:24:16.271Z,59.811001446487126
2022-07-26T22:27:16.396Z,60.00223648907591
2022-07-26T22:31:15.845Z,60.679905077442136
2022-07-26T22:34:16.162Z,61.00805063323433
2022-07-26T22:37:16.112Z,61.35577034354694
2022-07-26T22:41:16.617Z,61.2284235521647
2022-07-26T22:44:16.842Z,60.02296392408085
2022-07-26T22:47:16.806Z,59.6211305300078
2022-07-26T22:51:16.361Z,59.60604846895971
2022-07-26T22:54:16.551Z,60.62436728772686
2022-07-26T22:57:16.544Z,61.2155668464324
2022-07-26T23:01:16.863Z,60.957713284414105
2022-07-26T23:04:16.677Z,60.87897534935896
2022-07-26T23:07:16.639Z,61.517813462553875
2022-07-26T23:11:16.515Z,61.583233938884575
2022-07-26T23:14:17.100Z,61.72637059251323
2022-07-26T23:17:17.030Z,61.97571735185022
2022-07-26T23:21:16.500Z,62.56430132306327
2022-07-26T23:24:17.089Z,62.45291309506414
2022-07-26T23:27:19.959Z,61.61292151707224
2022-07-26T23:31:16.378Z,61.3404972773987
2022-07-26T23:34:16.610Z,62.10797411643172
2022-07-26T23:37:16.790Z,62.71254327192958
2022-07-26T23:41:16.639Z,62.8452711932493
2022-07-26T23:44:16.348Z,63.576188476693204
2022-07-26T23:47:16.435Z,63.77409272698603
2022-07-26T23:51:18.002Z,64.18313056700997
2022-07-26T23:54:17.026Z,64.29009303499433
2022-07-26T23:57:17.048Z,65.0779446305663
